Time;durP1;ratioP1;P1;durP2;ratioP2;P2;SDS_P1;SDS_P2;PMS_P1;PMS_P2;Temp;Humidity;BMP_temperature;BMP_pressure;BME280_temperature;BME280_humidity;BME280_pressure;Samples;Min_cycle;Max_cycle;Signal;HPM_P1;HPM_P2
2023/04/17 00:01:06;;;;;;;24.23;15.25;;;9.60;99.90;;;;;;5030059;28;20013;-78
2023/04/17 00:03:33;;;;;;;21.02;14.57;;;9.70;99.90;;;;;;5024370;28;20498;-75
2023/04/17 00:05:59;;;;;;;29.83;20.70;;;9.70;99.90;;;;;;5043467;28;20525;-79
2023/04/17 00:08:25;;;;;;;31.73;21.05;;;9.70;99.90;;;;;;5013087;28;20036;-79
2023/04/17 00:10:51;;;;;;;31.85;19.85;;;9.70;99.90;;;;;;5029260;28;20029;-75
2023/04/17 00:13:18;;;;;;;33.50;21.75;;;9.70;99.90;;;;;;5046454;28;20032;-74
2023/04/17 00:15:44;;;;;;;27.25;16.67;;;9.60;99.90;;;;;;5005687;28;20047;-75
2023/04/17 00:18:10;;;;;;;25.20;17.63;;;9.70;99.90;;;;;;5028007;28;20035;-76
2023/04/17 00:20:36;;;;;;;31.73;19.50;;;9.70;99.90;;;;;;5012913;28;20148;-78
2023/04/17 00:23:03;;;;;;;27.65;17.85;;;9.70;99.90;;;;;;5047856;28;20020;-77
2023/04/17 00:25:29;;;;;;;24.77;16.35;;;9.70;99.90;;;;;;5021931;28;20609;-75
2023/04/17 00:27:56;;;;;;;28.23;18.80;;;9.70;99.90;;;;;;5027653;28;20479;-76
2023/04/17 00:30:22;;;;;;;27.95;19.80;;;9.70;99.90;;;;;;5011517;28;20040;-75
2023/04/17 00:32:49;;;;;;;30.55;17.92;;;9.70;99.90;;;;;;5012431;28;20029;-77
2023/04/17 00:35:16;;;;;;;30.15;18.45;;;9.70;99.90;;;;;;5040767;28;20032;-77
2023/04/17 00:37:42;;;;;;;33.05;19.80;;;9.70;99.90;;;;;;5020058;28;20059;-76
2023/04/17 00:40:09;;;;;;;26.42;18.25;;;9.70;99.90;;;;;;5025470;28;21440;-74
2023/04/17 00:42:36;;;;;;;28.33;17.50;;;9.60;99.90;;;;;;5043086;28;20638;-78
2023/04/17 00:45:04;;;;;;;26.90;18.05;;;9.60;99.90;;;;;;5006886;28;20021;-78
2023/04/17 00:47:31;;;;;;;25.55;17.45;;;9.60;99.90;;;;;;5020770;28;20554;-75
2023/04/17 00:49:57;;;;;;;21.67;14.82;;;9.60;99.90;;;;;;5027920;28;20028;-76
2023/04/17 00:52:28;;;;;;;27.52;16.45;;;9.60;99.90;;;;;;5029493;28;20646;-76
2023/04/17 00:54:56;;;;;;;29.88;19.05;;;9.60;99.90;;;;;;5008959;28;20526;-76
2023/04/17 00:57:24;;;;;;;27.23;17.77;;;9.60;99.90;;;;;;5005948;28;23767;-78
2023/04/17 00:59:50;;;;;;;29.83;18.00;;;9.50;99.90;;;;;;5030089;28;20400;-77
2023/04/17 01:02:17;;;;;;;29.00;19.58;;;9.50;99.90;;;;;;5027960;28;20040;-77
2023/04/17 01:04:43;;;;;;;29.08;18.83;;;9.60;99.90;;;;;;5025314;28;20043;-76
2023/04/17 01:07:10;;;;;;;27.52;18.05;;;9.50;99.90;;;;;;5041847;28;20032;-75
2023/04/17 01:09:37;;;;;;;36.42;24.92;;;9.50;99.90;;;;;;5048818;28;20047;-76
2023/04/17 01:12:26;;;;;;;27.48;19.48;;;9.50;99.90;;;;;;5028922;28;20032;-77
2023/04/17 01:14:53;;;;;;;25.08;16.55;;;9.50;99.90;;;;;;5009525;28;20028;-77
2023/04/17 01:17:20;;;;;;;24.52;16.05;;;9.50;99.90;;;;;;5006027;28;20028;-76
2023/04/17 01:19:48;;;;;;;26.70;17.25;;;9.50;99.90;;;;;;5009060;28;20036;-79
2023/04/17 01:22:15;;;;;;;32.22;20.25;;;9.50;99.90;;;;;;5013169;28;20048;-74
2023/04/17 01:24:43;;;;;;;26.63;17.50;;;9.50;99.90;;;;;;5027971;28;20048;-75
2023/04/17 01:27:12;;;;;;;26.67;18.27;;;9.50;99.90;;;;;;5007802;28;20035;-74
2023/04/17 01:29:42;;;;;;;21.85;14.75;;;9.50;99.90;;;;;;5047633;28;20047;-75
2023/04/17 01:32:08;;;;;;;32.92;20.75;;;9.50;99.90;;;;;;5047971;28;20494;-76
2023/04/17 01:34:36;;;;;;;30.48;20.02;;;9.50;99.90;;;;;;4996154;28;20033;-79
2023/04/17 01:37:02;;;;;;;34.38;22.20;;;9.50;99.90;;;;;;5008943;28;20174;-77
2023/04/17 01:39:28;;;;;;;29.88;20.83;;;9.40;99.90;;;;;;5047258;28;20051;-75
2023/04/17 01:41:55;;;;;;;23.98;16.65;;;9.40;99.90;;;;;;5029389;28;20059;-75
2023/04/17 01:44:21;;;;;;;25.40;17.55;;;9.40;99.90;;;;;;5027245;28;20387;-78
2023/04/17 01:46:48;;;;;;;30.02;20.40;;;9.50;99.90;;;;;;5005245;28;20044;-76
2023/04/17 01:49:15;;;;;;;23.98;16.38;;;9.50;99.90;;;;;;5012109;28;20032;-75
2023/04/17 01:51:41;;;;;;;30.48;20.80;;;9.50;99.90;;;;;;5028740;28;20051;-77
2023/04/17 01:54:08;;;;;;;19.00;13.82;;;9.50;99.90;;;;;;5011972;28;20051;-74
2023/04/17 01:56:34;;;;;;;22.58;14.52;;;9.50;99.90;;;;;;5028899;28;20321;-77
2023/04/17 01:59:01;;;;;;;26.70;16.98;;;9.50;99.90;;;;;;5028398;28;20043;-75
2023/04/17 02:01:27;;;;;;;31.58;19.35;;;9.50;99.90;;;;;;4998682;28;20044;-77
2023/04/17 02:03:53;;;;;;;23.67;15.20;;;9.50;99.90;;;;;;5027317;28;20502;-76
2023/04/17 02:06:19;;;;;;;29.67;19.63;;;9.50;99.90;;;;;;5028484;28;20035;-76
2023/04/17 02:08:46;;;;;;;32.90;20.88;;;9.50;99.90;;;;;;5027516;28;20052;-75
2023/04/17 02:11:14;;;;;;;36.38;24.58;;;9.50;99.90;;;;;;5046864;28;20031;-78
2023/04/17 02:13:41;;;;;;;32.58;22.10;;;9.50;99.90;;;;;;5042674;28;20033;-76
2023/04/17 02:16:08;;;;;;;32.08;22.63;;;9.50;99.90;;;;;;5025859;28;20037;-76
2023/04/17 02:18:35;;;;;;;32.00;21.02;;;9.50;99.90;;;;;;5031389;28;20036;-75
2023/04/17 02:21:01;;;;;;;20.27;14.32;;;9.40;99.90;;;;;;5031361;28;20036;-75
2023/04/17 02:23:27;;;;;;;26.90;18.63;;;9.40;99.90;;;;;;5024143;28;20045;-74
2023/04/17 02:25:53;;;;;;;31.60;20.08;;;9.40;99.90;;;;;;5013256;28;20028;-77
2023/04/17 02:28:20;;;;;;;32.95;20.77;;;9.40;99.90;;;;;;5029405;28;20063;-79
2023/04/17 02:30:46;;;;;;;23.00;15.93;;;9.40;99.90;;;;;;5030712;28;20037;-77
2023/04/17 02:33:12;;;;;;;33.13;22.90;;;9.40;99.90;;;;;;5024375;28;20024;-75
2023/04/17 02:35:39;;;;;;;36.10;23.02;;;9.40;99.90;;;;;;5023845;28;20036;-75
2023/04/17 02:38:05;;;;;;;28.30;20.50;;;9.40;99.90;;;;;;5045860;28;20045;-76
2023/04/17 02:40:33;;;;;;;25.88;17.65;;;9.40;99.90;;;;;;5015539;28;20041;-79
2023/04/17 02:43:01;;;;;;;25.63;18.05;;;9.40;99.90;;;;;;5009973;28;20036;-76
2023/04/17 02:45:28;;;;;;;31.25;21.85;;;9.40;99.90;;;;;;5026892;28;20025;-75
2023/04/17 02:47:55;;;;;;;36.05;25.05;;;9.40;99.90;;;;;;5040736;28;20036;-73
2023/04/17 02:50:21;;;;;;;30.13;20.77;;;9.30;99.90;;;;;;5023492;28;20032;-76
2023/04/17 02:53:10;;;;;;;35.72;25.88;;;9.30;99.90;;;;;;5027266;28;20506;-76
2023/04/17 02:55:36;;;;;;;30.48;20.42;;;9.20;99.90;;;;;;5023970;28;20059;-77
2023/04/17 02:58:03;;;;;;;28.95;18.83;;;9.20;99.90;;;;;;5013356;28;20028;-77
2023/04/17 03:00:29;;;;;;;24.60;17.08;;;9.20;99.90;;;;;;5029723;28;20033;-77
2023/04/17 03:02:56;;;;;;;26.83;19.55;;;9.10;99.90;;;;;;5028442;28;20041;-78
2023/04/17 03:05:22;;;;;;;24.90;18.15;;;9.20;99.90;;;;;;5040676;28;20360;-74
2023/04/17 03:07:50;;;;;;;21.75;15.07;;;9.10;99.90;;;;;;5028831;28;20356;-78
2023/04/17 03:10:17;;;;;;;25.73;17.83;;;9.10;99.90;;;;;;5027809;28;20047;-73
2023/04/17 03:12:44;;;;;;;29.83;19.20;;;9.10;99.90;;;;;;5041227;28;20036;-76
2023/04/17 03:15:12;;;;;;;31.15;21.27;;;9.00;99.90;;;;;;5030139;28;20033;-76
2023/04/17 03:17:38;;;;;;;27.92;18.67;;;9.10;99.90;;;;;;5013591;28;20104;-79
2023/04/17 03:20:06;;;;;;;28.02;20.25;;;9.00;99.90;;;;;;5032914;28;20463;-75
2023/04/17 03:22:33;;;;;;;24.00;17.08;;;9.00;99.90;;;;;;5011000;28;20033;-76
2023/04/17 03:25:00;;;;;;;28.50;20.08;;;8.90;99.90;;;;;;5004276;28;20032;-77
2023/04/17 03:27:33;;;;;;;29.92;19.33;;;8.90;99.90;;;;;;5027950;28;20688;-78
2023/04/17 03:29:59;;;;;;;28.73;18.27;;;9.00;99.90;;;;;;5047812;28;20041;-79
2023/04/17 03:32:26;;;;;;;28.15;18.48;;;9.00;99.90;;;;;;4999705;28;20020;-75
2023/04/17 03:34:53;;;;;;;26.58;18.27;;;8.90;99.90;;;;;;5026177;28;20041;-74
2023/04/17 03:37:19;;;;;;;30.88;21.55;;;8.90;99.90;;;;;;5025491;28;20029;-77
2023/04/17 03:39:45;;;;;;;23.58;15.10;;;8.90;99.90;;;;;;5027984;28;20040;-75
2023/04/17 03:42:13;;;;;;;24.30;17.20;;;8.90;99.90;;;;;;5013578;28;20059;-77
2023/04/17 03:44:40;;;;;;;27.38;18.85;;;8.90;99.90;;;;;;5042079;28;20457;-76
2023/04/17 03:47:06;;;;;;;32.53;21.63;;;8.90;99.90;;;;;;5010207;28;20028;-74
2023/04/17 03:49:33;;;;;;;24.67;16.40;;;8.90;99.90;;;;;;5029022;28;20028;-77
2023/04/17 03:52:02;;;;;;;21.10;14.27;;;8.90;99.90;;;;;;5026182;28;20017;-75
2023/04/17 03:54:34;;;;;;;32.42;20.15;;;8.80;99.90;;;;;;5028046;28;20032;-74
2023/04/17 03:57:02;;;;;;;33.50;22.53;;;8.90;99.90;;;;;;5018192;28;20041;-75
2023/04/17 03:59:30;;;;;;;36.03;24.75;;;8.80;99.90;;;;;;5031768;28;20301;-74
2023/04/17 04:01:57;;;;;;;35.28;21.08;;;8.80;99.90;;;;;;5030655;28;20041;-78
2023/04/17 04:04:24;;;;;;;38.25;25.90;;;8.80;99.90;;;;;;5025943;28;20052;-74
2023/04/17 04:06:57;;;;;;;29.52;18.00;;;8.80;99.90;;;;;;5028248;28;20021;-75
2023/04/17 04:09:25;;;;;;;32.20;21.00;;;8.80;99.90;;;;;;5028443;28;20032;-76
2023/04/17 04:11:52;;;;;;;24.40;16.38;;;8.80;99.90;;;;;;5029584;28;20039;-77
2023/04/17 04:14:18;;;;;;;28.38;18.60;;;8.80;99.90;;;;;;5011437;28;20044;-75
2023/04/17 04:16:47;;;;;;;45.63;29.83;;;8.80;99.90;;;;;;5027570;28;20059;-74
2023/04/17 04:19:14;;;;;;;29.95;19.95;;;8.80;99.90;;;;;;5028448;28;20059;-76
2023/04/17 04:21:42;;;;;;;29.38;19.27;;;8.80;99.90;;;;;;5045965;28;20032;-76
2023/04/17 04:24:12;;;;;;;43.38;28.23;;;8.80;99.90;;;;;;5027660;28;20025;-74
2023/04/17 04:26:39;;;;;;;33.55;21.95;;;8.80;99.90;;;;;;5023795;28;20575;-75
2023/04/17 04:29:08;;;;;;;33.28;21.75;;;8.70;99.90;;;;;;4996353;28;20036;-74
2023/04/17 04:31:54;;;;;;;36.80;23.02;;;8.80;99.90;;;;;;5026232;28;20029;-77
2023/04/17 04:34:24;;;;;;;51.50;30.83;;;8.70;99.90;;;;;;5009842;28;20036;-78
2023/04/17 04:36:51;;;;;;;31.15;20.75;;;8.70;99.90;;;;;;5010041;28;20043;-77
2023/04/17 04:39:28;;;;;;;34.72;22.67;;;8.70;99.90;;;;;;5028602;28;20514;-74
2023/04/17 04:41:55;;;;;;;28.10;17.77;;;8.70;99.90;;;;;;5012403;28;20055;-76
2023/04/17 04:44:25;;;;;;;36.90;23.50;;;8.70;99.90;;;;;;5026481;28;20031;-77
2023/04/17 04:46:55;;;;;;;33.28;21.67;;;8.80;99.90;;;;;;5007702;28;20032;-77
2023/04/17 04:49:22;;;;;;;31.33;20.05;;;8.80;99.90;;;;;;5011568;28;20085;-74
2023/04/17 04:51:48;;;;;;;37.53;24.08;;;8.70;99.90;;;;;;5029835;28;20032;-75
2023/04/17 04:54:15;;;;;;;28.48;19.42;;;8.80;99.90;;;;;;5009143;28;20045;-75
2023/04/17 04:56:49;;;;;;;30.20;19.65;;;8.80;99.90;;;;;;5011762;28;20032;-78
2023/04/17 04:59:16;;;;;;;34.15;21.38;;;8.80;99.90;;;;;;5026862;28;20396;-79
2023/04/17 05:01:49;;;;;;;;;;;8.80;99.90;;;;;;4996795;28;20024;-77
2023/04/17 05:04:18;;;;;;;41.83;26.85;;;8.80;99.90;;;;;;5008028;28;19915;-78
2023/04/17 05:06:46;;;;;;;32.97;21.83;;;8.80;99.90;;;;;;5025667;28;20367;-77
2023/04/17 05:09:13;;;;;;;43.58;27.85;;;8.90;99.90;;;;;;5028529;28;20021;-75
2023/04/17 05:11:39;;;;;;;38.92;24.77;;;8.80;99.90;;;;;;5011502;28;20398;-77
2023/04/17 05:14:06;;;;;;;34.70;23.10;;;8.80;99.90;;;;;;5009474;28;20048;-76
2023/04/17 05:16:35;;;;;;;39.22;23.30;;;8.80;99.90;;;;;;5024067;28;20052;-75
2023/04/17 05:19:03;;;;;;;35.60;22.83;;;8.90;99.90;;;;;;5026667;28;20030;-79
2023/04/17 05:21:47;;;;;;;31.70;20.40;;;8.80;99.90;;;;;;5047333;28;20667;-75
2023/04/17 05:24:16;;;;;;;43.35;26.95;;;8.80;99.90;;;;;;5046575;28;21023;-78
2023/04/17 05:26:42;;;;;;;40.72;26.98;;;8.90;99.90;;;;;;5013384;28;20035;-77
2023/04/17 05:29:08;;;;;;;33.15;21.98;;;8.90;99.90;;;;;;5014686;28;20040;-76
2023/04/17 05:31:35;;;;;;;32.58;20.38;;;8.90;99.90;;;;;;5015798;28;20035;-76
2023/04/17 05:34:06;;;;;;;42.38;28.40;;;8.90;99.90;;;;;;5010111;28;20029;-76
2023/04/17 05:36:32;;;;;;;44.55;27.80;;;8.90;99.90;;;;;;5027873;28;20028;-77
2023/04/17 05:39:02;;;;;;;33.60;21.15;;;9.00;99.90;;;;;;5027103;28;20041;-77
2023/04/17 05:41:30;;;;;;;39.47;24.60;;;9.00;99.90;;;;;;5030452;28;21107;-77
2023/04/17 05:43:56;;;;;;;29.67;18.63;;;9.00;99.90;;;;;;5015091;28;20032;-75
2023/04/17 05:46:22;;;;;;;39.50;24.95;;;9.00;99.90;;;;;;5031493;28;20036;-76
2023/04/17 05:48:49;;;;;;;36.08;23.52;;;9.00;99.90;;;;;;5050599;28;20036;-78
2023/04/17 05:51:15;;;;;;;37.67;24.30;;;9.10;99.90;;;;;;5014310;28;20040;-74
2023/04/17 05:53:43;;;;;;;27.35;18.40;;;9.10;99.90;;;;;;5028484;28;20785;-74
2023/04/17 05:56:10;;;;;;;39.35;25.85;;;9.20;99.90;;;;;;5015236;28;20660;-77
2023/04/17 05:58:36;;;;;;;42.47;27.08;;;9.20;99.90;;;;;;5031025;28;20024;-74
2023/04/17 06:01:05;;;;;;;33.15;20.83;;;9.20;99.90;;;;;;5029633;28;20051;-77
2023/04/17 06:03:33;;;;;;;39.75;27.23;;;9.20;99.90;;;;;;5012126;28;20459;-74
2023/04/17 06:06:06;;;;;;;42.90;25.83;;;9.20;99.90;;;;;;5011324;28;20047;-75
2023/04/17 06:08:32;;;;;;;34.08;22.63;;;9.20;99.90;;;;;;4996569;28;20423;-75
2023/04/17 06:10:59;;;;;;;36.13;23.00;;;9.20;99.90;;;;;;5011591;28;20032;-77
2023/04/17 06:13:26;;;;;;;41.47;26.52;;;9.20;99.90;;;;;;5048659;28;20043;-75
2023/04/17 06:15:53;;;;;;;47.08;30.75;;;9.20;99.90;;;;;;5029656;28;20043;-77
2023/04/17 06:18:19;;;;;;;47.90;32.08;;;9.30;99.90;;;;;;5028730;28;20032;-75
2023/04/17 06:20:45;;;;;;;38.78;26.58;;;9.30;99.90;;;;;;5005113;28;20052;-77
2023/04/17 06:23:12;;;;;;;37.58;24.40;;;9.20;99.90;;;;;;5007337;28;21421;-74
2023/04/17 06:25:38;;;;;;;38.80;25.20;;;9.30;99.90;;;;;;5021993;28;20044;-77
2023/04/17 06:28:05;;;;;;;45.10;29.33;;;9.30;99.90;;;;;;5003533;28;20044;-76
2023/04/17 06:30:31;;;;;;;41.60;25.88;;;9.30;99.90;;;;;;5025981;28;20099;-77
2023/04/17 06:32:57;;;;;;;39.63;25.05;;;9.30;99.90;;;;;;4994326;28;20039;-74
2023/04/17 06:35:24;;;;;;;33.22;22.77;;;9.30;99.90;;;;;;5020017;28;20052;-76
2023/04/17 06:37:58;;;;;;;34.58;22.20;;;9.40;99.90;;;;;;5024214;28;20032;-76
2023/04/17 06:40:25;;;;;;;29.00;18.05;;;9.40;99.90;;;;;;5008605;28;20456;-76
2023/04/17 06:42:52;;;;;;;34.63;23.05;;;9.40;99.90;;;;;;5003366;28;20033;-76
2023/04/17 06:45:20;;;;;;;37.47;24.77;;;9.50;99.90;;;;;;5020603;28;20414;-75
2023/04/17 06:47:46;;;;;;;46.47;29.42;;;9.60;99.90;;;;;;5008705;28;20028;-79
2023/04/17 06:50:17;;;;;;;52.97;31.90;;;9.60;99.90;;;;;;5007524;28;20124;-77
2023/04/17 06:52:43;;;;;;;47.72;30.80;;;9.60;99.90;;;;;;5008274;28;20048;-76
2023/04/17 06:55:10;;;;;;;46.40;30.33;;;9.60;99.90;;;;;;4988074;28;20095;-75
2023/04/17 06:57:37;;;;;;;46.35;30.50;;;9.70;99.90;;;;;;5004913;28;20036;-76
2023/04/17 07:00:05;;;;;;;42.47;27.52;;;9.70;99.90;;;;;;5004982;28;20041;-77
2023/04/17 07:02:32;;;;;;;48.08;31.67;;;9.70;99.90;;;;;;5008345;28;20045;-77
2023/04/17 07:04:58;;;;;;;51.60;34.45;;;9.70;99.90;;;;;;5022504;28;20519;-75
2023/04/17 07:07:25;;;;;;;44.50;28.63;;;9.70;99.90;;;;;;5022313;28;20491;-76
2023/04/17 07:09:52;;;;;;;38.20;23.98;;;9.70;99.90;;;;;;4991038;28;20036;-76
2023/04/17 07:12:18;;;;;;;61.67;37.70;;;9.70;99.90;;;;;;5022124;28;20800;-77
2023/04/17 07:14:44;;;;;;;44.95;27.67;;;9.80;99.90;;;;;;5004199;28;20041;-75
2023/04/17 07:17:10;;;;;;;53.33;33.72;;;9.90;99.90;;;;;;5023321;28;20029;-76
2023/04/17 07:19:37;;;;;;;52.38;33.05;;;9.90;99.90;;;;;;5024919;28;20606;-77
2023/04/17 07:22:04;;;;;;;41.95;26.98;;;10.00;99.90;;;;;;5025198;28;20063;-76
2023/04/17 07:24:33;;;;;;;59.95;37.38;;;10.00;99.90;;;;;;5024629;28;20307;-75
2023/04/17 07:27:03;;;;;;;46.38;29.85;;;10.10;99.90;;;;;;5007076;28;20558;-77
2023/04/17 07:29:30;;;;;;;52.30;34.42;;;10.10;99.90;;;;;;5044071;28;20028;-76
2023/04/17 07:31:56;;;;;;;49.40;31.58;;;10.10;99.90;;;;;;4994186;28;20048;-76
2023/04/17 07:34:24;;;;;;;52.17;33.13;;;10.20;99.90;;;;;;5040294;28;20956;-76
2023/04/17 07:36:51;;;;;;;41.38;25.83;;;10.20;99.90;;;;;;5025943;28;20363;-77
2023/04/17 07:39:18;;;;;;;41.53;28.42;;;10.30;99.90;;;;;;5027510;28;20051;-75
2023/04/17 07:41:44;;;;;;;36.78;25.50;;;10.40;99.90;;;;;;5007829;28;20033;-77
2023/04/17 07:44:10;;;;;;;42.63;27.27;;;10.40;99.90;;;;;;5041496;28;20118;-77
2023/04/17 07:46:36;;;;;;;46.78;32.33;;;10.50;99.90;;;;;;5023676;28;20719;-75
2023/04/17 07:49:03;;;;;;;41.00;29.67;;;10.50;99.90;;;;;;5025055;28;20051;-76
2023/04/17 07:51:30;;;;;;;38.55;27.48;;;10.40;99.90;;;;;;5044278;28;21005;-76
2023/04/17 07:53:56;;;;;;;41.47;28.70;;;10.40;99.90;;;;;;5023493;28;20135;-76
2023/04/17 07:56:24;;;;;;;43.13;28.25;;;10.40;99.90;;;;;;5042594;28;20032;-77
2023/04/17 07:58:50;;;;;;;52.90;33.97;;;10.40;99.90;;;;;;5048223;28;20032;-76
2023/04/17 08:01:17;;;;;;;44.33;29.70;;;10.40;99.90;;;;;;5044114;28;20036;-76
2023/04/17 08:03:44;;;;;;;43.50;28.60;;;10.30;99.90;;;;;;5023988;28;20052;-76
2023/04/17 08:06:10;;;;;;;41.40;27.75;;;10.30;99.90;;;;;;5008794;28;20033;-76
2023/04/17 08:08:37;;;;;;;52.38;34.22;;;10.30;99.90;;;;;;5049235;28;20044;-75
2023/04/17 08:11:04;;;;;;;38.10;26.55;;;10.30;99.90;;;;;;5028077;28;20029;-77
2023/04/17 08:13:31;;;;;;;43.60;30.13;;;10.20;99.90;;;;;;5043090;28;20040;-76
2023/04/17 08:15:58;;;;;;;52.80;34.65;;;10.20;99.90;;;;;;5023340;28;20048;-76
2023/04/17 08:18:24;;;;;;;52.53;34.92;;;10.10;99.90;;;;;;5046822;28;20032;-77
2023/04/17 08:20:51;;;;;;;46.97;33.88;;;10.00;99.90;;;;;;5007015;28;20057;-78
2023/04/17 08:23:18;;;;;;;52.60;35.13;;;10.00;99.90;;;;;;5043996;28;20032;-77
2023/04/17 08:25:44;;;;;;;39.60;27.70;;;10.00;99.90;;;;;;5027577;28;20350;-79
2023/04/17 08:28:11;;;;;;;44.78;29.55;;;10.10;99.90;;;;;;5047058;28;20041;-79
2023/04/17 08:30:37;;;;;;;52.03;33.53;;;10.20;99.90;;;;;;5027743;28;20051;-78
2023/04/17 08:33:03;;;;;;;37.53;25.95;;;10.30;99.90;;;;;;5026777;28;20036;-78
2023/04/17 08:35:29;;;;;;;41.95;29.50;;;10.50;99.90;;;;;;5043388;28;20894;-79
2023/04/17 08:37:58;;;;;;;53.95;37.08;;;10.70;99.90;;;;;;5028208;28;20043;-78
2023/04/17 08:40:25;;;;;;;51.47;34.60;;;10.90;99.90;;;;;;5027305;28;20043;-77
2023/04/17 08:42:53;;;;;;;49.75;35.83;;;11.10;99.90;;;;;;5013009;28;20041;-76
2023/04/17 08:45:22;;;;;;;48.13;33.05;;;11.30;99.90;;;;;;5027915;28;20032;-76
2023/04/17 08:47:49;;;;;;;50.28;36.67;;;11.40;99.90;;;;;;5049590;28;20024;-75
2023/04/17 08:50:20;;;;;;;48.25;36.17;;;11.60;99.90;;;;;;5010605;28;20040;-76
2023/04/17 08:52:50;;;;;;;50.10;34.58;;;11.80;99.90;;;;;;5045770;28;20028;-76
2023/04/17 08:55:23;;;;;;;46.00;32.60;;;12.00;99.90;;;;;;5044540;28;20344;-76
2023/04/17 08:57:53;;;;;;;42.10;30.00;;;12.30;99.90;;;;;;5027518;28;20048;-77
2023/04/17 09:00:40;;;;;;;45.10;33.40;;;12.50;99.90;;;;;;5008867;28;20052;-74
2023/04/17 09:03:10;;;;;;;42.72;31.92;;;12.70;99.90;;;;;;5010777;28;20422;-74
2023/04/17 09:05:40;;;;;;;43.28;30.83;;;12.80;99.90;;;;;;5007374;28;20047;-77
2023/04/17 09:08:16;;;;;;;36.75;27.75;;;12.80;99.90;;;;;;5027273;28;20037;-76
2023/04/17 09:10:44;;;;;;;40.70;32.00;;;12.90;99.90;;;;;;5045063;28;20032;-77
2023/04/17 09:13:15;;;;;;;43.83;32.53;;;12.90;99.90;;;;;;5026752;28;20043;-77
2023/04/17 09:15:43;;;;;;;41.28;30.00;;;12.80;99.90;;;;;;5008935;28;20041;-76
2023/04/17 09:18:27;;;;;;;38.33;28.77;;;12.70;99.90;;;;;;5028669;28;20043;-77
2023/04/17 09:20:53;;;;;;;41.75;29.52;;;12.70;99.90;;;;;;5026994;28;20507;-77
2023/04/17 09:23:21;;;;;;;37.38;28.35;;;12.90;99.90;;;;;;5044582;28;20047;-77
2023/04/17 09:26:12;;;;;;;38.67;27.38;;;12.90;99.90;;;;;;5026226;28;20047;-77
2023/04/17 09:28:39;;;;;;;39.97;30.33;;;13.00;99.90;;;;;;5047322;28;20043;-77
2023/04/17 09:31:18;;;;;;;46.50;32.55;;;13.10;99.90;;;;;;5046914;28;20041;-77
2023/04/17 09:34:00;;;;;;;36.65;27.20;;;13.10;99.90;;;;;;5043175;28;20036;-77
2023/04/17 09:36:29;;;;;;;33.35;25.48;;;13.00;99.90;;;;;;5037468;28;20028;-77
2023/04/17 09:38:58;;;;;;;37.90;29.85;;;13.00;99.90;;;;;;5025580;28;20986;-75
2023/04/17 09:41:25;;;;;;;38.42;29.05;;;13.00;99.90;;;;;;5009780;28;20036;-75
2023/04/17 09:44:00;;;;;;;36.40;28.23;;;13.00;99.90;;;;;;5023396;28;20037;-74
2023/04/17 09:46:34;;;;;;;37.55;27.90;;;13.00;99.90;;;;;;5010320;28;20044;-75
2023/04/17 09:49:04;;;;;;;33.42;27.20;;;13.00;99.90;;;;;;5026719;28;20024;-75
2023/04/17 09:51:30;;;;;;;38.92;27.42;;;13.10;99.90;;;;;;5044422;28;20032;-76
2023/04/17 09:53:58;;;;;;;28.45;22.88;;;13.20;99.90;;;;;;5040380;28;20029;-75
2023/04/17 09:56:26;;;;;;;33.00;25.02;;;13.40;99.90;;;;;;5004457;28;20028;-75
2023/04/17 09:58:53;;;;;;;32.00;23.65;;;13.50;99.90;;;;;;5023903;28;20035;-75
2023/04/17 10:01:20;;;;;;;35.05;25.17;;;13.60;99.90;;;;;;5041824;28;20999;-78
2023/04/17 10:03:47;;;;;;;32.63;23.48;;;13.60;99.90;;;;;;5035672;28;20431;-76
2023/04/17 10:06:14;;;;;;;29.65;21.52;;;13.70;99.90;;;;;;5025197;28;20036;-76
2023/04/17 10:08:40;;;;;;;24.85;19.67;;;13.70;99.90;;;;;;5013363;28;20024;-76
2023/04/17 10:11:07;;;;;;;25.80;19.60;;;13.90;99.90;;;;;;5023902;28;20043;-77
2023/04/17 10:13:37;;;;;;;25.73;19.25;;;14.10;99.90;;;;;;5023371;28;20036;-76
2023/04/17 10:16:05;;;;;;;25.30;19.05;;;14.30;99.90;;;;;;5022205;28;20024;-75
2023/04/17 10:18:31;;;;;;;21.00;15.52;;;14.40;99.90;;;;;;5024912;28;20466;-76
2023/04/17 10:21:20;;;;;;;23.33;17.50;;;14.60;99.90;;;;;;5024813;28;20052;-75
2023/04/17 10:23:47;;;;;;;26.75;19.80;;;15.00;99.90;;;;;;5039963;28;20025;-76
2023/04/17 10:26:37;;;;;;;23.25;18.33;;;15.30;99.90;;;;;;5022259;28;20452;-77
2023/04/17 10:29:03;;;;;;;26.83;19.35;;;15.50;99.90;;;;;;5017047;28;20954;-76
2023/04/17 10:32:08;;;;;;;26.33;20.00;;;15.60;99.90;;;;;;5032426;28;20502;-79
2023/04/17 10:34:36;;;;;;;23.60;17.73;;;15.70;99.90;;;;;;5015832;28;20948;-78
2023/04/17 10:37:03;;;;;;;23.08;17.05;;;15.70;99.90;;;;;;5042167;28;20028;-80
2023/04/17 10:39:50;;;;;;;28.63;21.63;;;15.60;99.90;;;;;;5009581;28;20024;-80
2023/04/17 10:42:19;;;;;;;22.45;17.27;;;15.70;99.90;;;;;;5042868;28;20032;-81
2023/04/17 10:44:46;;;;;;;20.77;16.55;;;15.70;99.90;;;;;;5039252;28;21140;-79
2023/04/17 10:47:13;;;;;;;20.65;15.77;;;16.00;99.90;;;;;;5043784;28;20029;-78
2023/04/17 10:49:48;;;;;;;23.83;17.45;;;16.30;99.90;;;;;;5047790;28;20025;-79
2023/04/17 10:52:33;;;;;;;21.38;15.27;;;16.40;99.90;;;;;;5011002;28;20016;-80
2023/04/17 10:55:03;;;;;;;20.17;15.27;;;16.60;99.90;;;;;;5024781;28;20043;-79
2023/04/17 10:57:52;;;;;;;16.85;14.20;;;16.70;99.90;;;;;;5045254;28;20024;-79
2023/04/17 11:00:26;;;;;;;21.08;16.42;;;16.90;99.90;;;;;;4995267;28;20021;-79
2023/04/17 11:02:52;;;;;;;17.80;14.20;;;17.10;99.90;;;;;;5043399;28;20032;-79
2023/04/17 11:05:19;;;;;;;17.02;12.20;;;17.30;99.90;;;;;;5023295;28;20496;-80
2023/04/17 11:07:49;;;;;;;18.13;13.60;;;17.60;99.90;;;;;;5027784;28;20020;-80
2023/04/17 11:10:20;;;;;;;19.00;14.82;;;17.70;99.90;;;;;;5026536;28;20028;-78
2023/04/17 11:12:48;;;;;;;17.92;13.43;;;17.90;99.90;;;;;;5009872;28;20040;-77
2023/04/17 11:15:15;;;;;;;17.20;14.20;;;18.00;99.90;;;;;;5041034;28;20036;-76
2023/04/17 11:17:46;;;;;;;22.35;14.27;;;18.10;99.90;;;;;;5006835;28;20035;-76
2023/04/17 11:20:16;;;;;;;17.90;14.13;;;18.20;99.90;;;;;;5021348;28;20055;-76
2023/04/17 11:22:43;;;;;;;19.23;13.95;;;18.20;99.90;;;;;;5022039;28;20028;-76
2023/04/17 11:25:19;;;;;;;18.85;14.00;;;18.20;99.50;;;;;;5004219;28;20055;-79
2023/04/17 11:27:45;;;;;;;20.35;14.10;;;18.20;99.80;;;;;;5018994;28;20586;-79
2023/04/17 11:30:12;;;;;;;16.58;14.05;;;18.30;99.30;;;;;;5042985;28;20032;-80
2023/04/17 11:32:43;;;;;;;18.45;13.60;;;18.30;98.80;;;;;;5023739;28;20518;-78
2023/04/17 11:35:09;;;;;;;17.67;13.10;;;18.30;98.80;;;;;;5010960;28;20040;-78
2023/04/17 11:38:11;;;;;;;19.58;12.77;;;18.30;97.50;;;;;;5027754;28;20024;-82
2023/04/17 11:40:50;;;;;;;16.48;12.48;;;18.20;96.60;;;;;;5046328;28;20162;-76
2023/04/17 11:43:17;;;;;;;16.13;13.00;;;18.20;96.30;;;;;;5028315;28;20040;-75
2023/04/17 11:45:45;;;;;;;16.27;13.73;;;18.30;96.00;;;;;;5044814;28;20403;-79
2023/04/17 11:48:13;;;;;;;17.63;14.68;;;18.60;96.70;;;;;;5026828;28;20036;-80
2023/04/17 11:50:42;;;;;;;15.15;12.18;;;19.00;96.00;;;;;;5028987;28;21137;-78
2023/04/17 11:53:13;;;;;;;13.80;11.07;;;19.20;96.00;;;;;;5028739;28;20028;-76
2023/04/17 11:55:40;;;;;;;14.25;12.70;;;19.50;95.40;;;;;;5045763;28;20039;-75
2023/04/17 11:58:08;;;;;;;16.65;12.85;;;20.00;94.80;;;;;;5012847;28;20487;-75
2023/04/17 12:00:36;;;;;;;16.08;12.05;;;20.40;93.30;;;;;;5048214;28;20581;-77
2023/04/17 12:03:25;;;;;;;13.02;11.55;;;20.70;92.00;;;;;;5045895;28;20036;-75
2023/04/17 12:06:00;;;;;;;19.80;12.05;;;20.90;90.10;;;;;;5025950;28;20451;-74
2023/04/17 12:08:26;;;;;;;14.20;12.55;;;20.80;86.80;;;;;;5028546;28;20044;-77
2023/04/17 12:10:53;;;;;;;12.25;10.80;;;20.60;84.90;;;;;;5047820;28;20028;-78
2023/04/17 12:13:20;;;;;;;14.18;11.20;;;20.80;87.50;;;;;;5027810;28;20024;-74
2023/04/17 12:15:46;;;;;;;11.75;10.05;;;21.10;83.50;;;;;;5025316;28;20478;-76
2023/04/17 12:18:12;;;;;;;13.57;11.10;;;21.50;83.90;;;;;;5041356;28;20376;-77
2023/04/17 12:20:39;;;;;;;13.10;11.75;;;21.80;81.90;;;;;;5026077;28;20045;-76
2023/04/17 12:23:05;;;;;;;13.55;11.35;;;21.90;81.60;;;;;;5027767;28;20292;-75
2023/04/17 12:25:32;;;;;;;10.55;8.82;;;21.80;80.90;;;;;;5042663;28;20479;-76
2023/04/17 12:28:03;;;;;;;12.70;11.40;;;21.80;79.90;;;;;;5028103;28;20561;-77
2023/04/17 12:30:30;;;;;;;17.55;11.73;;;21.80;77.90;;;;;;5011094;28;20590;-75
2023/04/17 12:32:56;;;;;;;11.50;9.57;;;21.50;77.00;;;;;;5025114;28;20059;-75
2023/04/17 12:35:22;;;;;;;12.07;10.77;;;21.10;78.00;;;;;;5024313;28;20055;-74
2023/04/17 12:37:52;;;;;;;11.77;10.55;;;21.00;79.00;;;;;;5025896;28;20048;-74
2023/04/17 12:40:20;;;;;;;13.20;10.07;;;21.50;78.50;;;;;;5026853;28;20052;-76